sensor_id;sensor_type;location;lat;lon;timestamp;P1;durP1;ratioP1;P2;durP2;ratioP2
12947;SDS011;6539;49.476;8.484;2023-07-02T00:02:33;5.40;;;2.70;;
12947;SDS011;6539;49.476;8.484;2023-07-02T00:05:20;5.60;;;2.70;;
12947;SDS011;6539;49.476;8.484;2023-07-02T00:08:06;3.60;;;2.83;;
12947;SDS011;6539;49.476;8.484;2023-07-02T00:10:54;3.87;;;2.73;;
12947;SDS011;6539;49.476;8.484;2023-07-02T00:13:40;5.87;;;3.03;;
12947;SDS011;6539;49.476;8.484;2023-07-02T00:16:26;4.43;;;2.70;;
12947;SDS011;6539;49.476;8.484;2023-07-02T00:19:15;5.27;;;2.47;;
12947;SDS011;6539;49.476;8.484;2023-07-02T00:22:01;4.57;;;2.40;;
12947;SDS011;6539;49.476;8.484;2023-07-02T00:24:48;5.40;;;2.37;;
12947;SDS011;6539;49.476;8.484;2023-07-02T00:27:41;3.40;;;2.43;;
12947;SDS011;6539;49.476;8.484;2023-07-02T00:30:29;3.30;;;2.30;;
12947;SDS011;6539;49.476;8.484;2023-07-02T00:33:18;3.77;;;3.03;;
12947;SDS011;6539;49.476;8.484;2023-07-02T00:36:06;5.40;;;2.67;;
12947;SDS011;6539;49.476;8.484;2023-07-02T00:38:52;4.10;;;2.77;;
12947;SDS011;6539;49.476;8.484;2023-07-02T00:41:38;4.17;;;2.63;;
12947;SDS011;6539;49.476;8.484;2023-07-02T00:44:27;5.77;;;2.60;;
12947;SDS011;6539;49.476;8.484;2023-07-02T00:47:13;5.90;;;2.77;;
12947;SDS011;6539;49.476;8.484;2023-07-02T00:50:02;4.93;;;2.97;;
12947;SDS011;6539;49.476;8.484;2023-07-02T00:52:48;3.93;;;2.30;;
12947;SDS011;6539;49.476;8.484;2023-07-02T00:55:34;3.00;;;2.23;;
12947;SDS011;6539;49.476;8.484;2023-07-02T00:58:20;5.27;;;2.90;;
12947;SDS011;6539;49.476;8.484;2023-07-02T01:01:09;4.73;;;2.73;;
12947;SDS011;6539;49.476;8.484;2023-07-02T01:04:02;3.90;;;2.53;;
12947;SDS011;6539;49.476;8.484;2023-07-02T01:06:50;5.83;;;2.63;;
12947;SDS011;6539;49.476;8.484;2023-07-02T01:09:36;7.70;;;2.73;;
12947;SDS011;6539;49.476;8.484;2023-07-02T01:12:22;3.43;;;2.60;;
12947;SDS011;6539;49.476;8.484;2023-07-02T01:15:12;6.80;;;2.50;;
12947;SDS011;6539;49.476;8.484;2023-07-02T01:18:04;5.03;;;2.63;;
12947;SDS011;6539;49.476;8.484;2023-07-02T01:20:52;9.50;;;2.50;;
12947;SDS011;6539;49.476;8.484;2023-07-02T01:23:39;4.67;;;2.90;;
12947;SDS011;6539;49.476;8.484;2023-07-02T01:26:30;7.57;;;3.43;;
12947;SDS011;6539;49.476;8.484;2023-07-02T01:29:24;4.70;;;3.43;;
12947;SDS011;6539;49.476;8.484;2023-07-02T01:32:10;5.73;;;2.60;;
12947;SDS011;6539;49.476;8.484;2023-07-02T01:34:56;7.97;;;2.93;;
12947;SDS011;6539;49.476;8.484;2023-07-02T01:37:46;3.77;;;2.60;;
12947;SDS011;6539;49.476;8.484;2023-07-02T01:40:32;3.50;;;2.50;;
12947;SDS011;6539;49.476;8.484;2023-07-02T01:43:18;5.50;;;2.87;;
12947;SDS011;6539;49.476;8.484;2023-07-02T01:46:04;5.17;;;2.43;;
12947;SDS011;6539;49.476;8.484;2023-07-02T01:48:50;4.43;;;2.70;;
12947;SDS011;6539;49.476;8.484;2023-07-02T01:51:36;4.53;;;2.47;;
12947;SDS011;6539;49.476;8.484;2023-07-02T01:54:27;5.40;;;2.30;;
12947;SDS011;6539;49.476;8.484;2023-07-02T01:57:16;4.37;;;2.30;;
12947;SDS011;6539;49.476;8.484;2023-07-02T02:00:02;4.37;;;2.40;;
12947;SDS011;6539;49.476;8.484;2023-07-02T02:02:48;3.73;;;2.20;;
12947;SDS011;6539;49.476;8.484;2023-07-02T02:05:35;5.47;;;2.77;;
12947;SDS011;6539;49.476;8.484;2023-07-02T02:08:21;4.63;;;2.60;;
12947;SDS011;6539;49.476;8.484;2023-07-02T02:11:07;4.67;;;2.70;;
12947;SDS011;6539;49.476;8.484;2023-07-02T02:13:56;4.93;;;2.87;;
12947;SDS011;6539;49.476;8.484;2023-07-02T02:16:43;2.97;;;2.30;;
12947;SDS011;6539;49.476;8.484;2023-07-02T02:19:33;2.87;;;2.60;;
12947;SDS011;6539;49.476;8.484;2023-07-02T02:22:24;6.93;;;3.67;;
12947;SDS011;6539;49.476;8.484;2023-07-02T02:25:10;5.10;;;3.60;;
12947;SDS011;6539;49.476;8.484;2023-07-02T02:27:59;7.20;;;3.70;;
12947;SDS011;6539;49.476;8.484;2023-07-02T02:30:45;8.80;;;3.70;;
12947;SDS011;6539;49.476;8.484;2023-07-02T02:33:32;5.83;;;3.80;;
12947;SDS011;6539;49.476;8.484;2023-07-02T02:36:20;11.00;;;4.03;;
12947;SDS011;6539;49.476;8.484;2023-07-02T02:39:06;7.53;;;4.40;;
12947;SDS011;6539;49.476;8.484;2023-07-02T02:41:57;6.93;;;4.90;;
12947;SDS011;6539;49.476;8.484;2023-07-02T02:44:46;7.40;;;4.30;;
12947;SDS011;6539;49.476;8.484;2023-07-02T02:47:32;8.13;;;4.80;;
12947;SDS011;6539;49.476;8.484;2023-07-02T02:50:18;8.40;;;4.83;;
12947;SDS011;6539;49.476;8.484;2023-07-02T02:53:04;7.60;;;4.73;;
12947;SDS011;6539;49.476;8.484;2023-07-02T02:55:50;7.13;;;5.10;;
12947;SDS011;6539;49.476;8.484;2023-07-02T02:58:36;6.97;;;4.60;;
12947;SDS011;6539;49.476;8.484;2023-07-02T03:01:25;9.60;;;5.10;;
12947;SDS011;6539;49.476;8.484;2023-07-02T03:04:16;10.47;;;5.27;;
12947;SDS011;6539;49.476;8.484;2023-07-02T03:07:04;7.63;;;4.80;;
12947;SDS011;6539;49.476;8.484;2023-07-02T03:09:52;8.47;;;4.50;;
12947;SDS011;6539;49.476;8.484;2023-07-02T03:12:40;8.83;;;5.10;;
12947;SDS011;6539;49.476;8.484;2023-07-02T03:15:26;8.77;;;5.33;;
12947;SDS011;6539;49.476;8.484;2023-07-02T03:18:15;9.30;;;4.77;;
12947;SDS011;6539;49.476;8.484;2023-07-02T03:21:01;11.30;;;5.03;;
12947;SDS011;6539;49.476;8.484;2023-07-02T03:23:47;9.60;;;5.50;;
12947;SDS011;6539;49.476;8.484;2023-07-02T03:26:33;8.03;;;5.33;;
12947;SDS011;6539;49.476;8.484;2023-07-02T03:29:19;9.57;;;5.07;;
12947;SDS011;6539;49.476;8.484;2023-07-02T03:32:06;9.07;;;5.27;;
12947;SDS011;6539;49.476;8.484;2023-07-02T03:34:52;7.20;;;4.77;;
12947;SDS011;6539;49.476;8.484;2023-07-02T03:37:38;8.43;;;5.23;;
12947;SDS011;6539;49.476;8.484;2023-07-02T03:40:29;6.37;;;5.07;;
12947;SDS011;6539;49.476;8.484;2023-07-02T03:43:15;9.93;;;5.07;;
12947;SDS011;6539;49.476;8.484;2023-07-02T03:46:01;9.30;;;6.07;;
12947;SDS011;6539;49.476;8.484;2023-07-02T03:48:47;9.40;;;5.50;;
12947;SDS011;6539;49.476;8.484;2023-07-02T03:51:33;11.20;;;5.37;;
12947;SDS011;6539;49.476;8.484;2023-07-02T03:54:19;7.17;;;5.20;;
12947;SDS011;6539;49.476;8.484;2023-07-02T03:57:10;9.23;;;5.50;;
12947;SDS011;6539;49.476;8.484;2023-07-02T04:00:01;7.50;;;5.17;;
12947;SDS011;6539;49.476;8.484;2023-07-02T04:02:49;8.13;;;5.13;;
12947;SDS011;6539;49.476;8.484;2023-07-02T04:05:35;10.13;;;5.60;;
12947;SDS011;6539;49.476;8.484;2023-07-02T04:08:21;7.47;;;5.00;;
12947;SDS011;6539;49.476;8.484;2023-07-02T04:11:07;7.47;;;5.43;;
12947;SDS011;6539;49.476;8.484;2023-07-02T04:13:53;7.53;;;5.07;;
12947;SDS011;6539;49.476;8.484;2023-07-02T04:16:44;6.63;;;4.97;;
12947;SDS011;6539;49.476;8.484;2023-07-02T04:19:33;6.63;;;4.87;;
12947;SDS011;6539;49.476;8.484;2023-07-02T04:22:23;6.77;;;4.87;;
12947;SDS011;6539;49.476;8.484;2023-07-02T04:25:10;9.30;;;5.37;;
12947;SDS011;6539;49.476;8.484;2023-07-02T04:28:00;10.00;;;5.20;;
12947;SDS011;6539;49.476;8.484;2023-07-02T04:30:48;7.93;;;5.47;;
12947;SDS011;6539;49.476;8.484;2023-07-02T04:33:39;8.83;;;5.50;;
12947;SDS011;6539;49.476;8.484;2023-07-02T04:36:28;7.50;;;5.37;;
12947;SDS011;6539;49.476;8.484;2023-07-02T04:39:14;9.53;;;5.30;;
12947;SDS011;6539;49.476;8.484;2023-07-02T04:42:02;8.37;;;5.60;;
12947;SDS011;6539;49.476;8.484;2023-07-02T04:44:49;12.90;;;6.20;;
12947;SDS011;6539;49.476;8.484;2023-07-02T04:47:35;9.33;;;5.57;;
12947;SDS011;6539;49.476;8.484;2023-07-02T04:50:28;9.00;;;5.63;;
12947;SDS011;6539;49.476;8.484;2023-07-02T04:53:14;9.13;;;5.60;;
12947;SDS011;6539;49.476;8.484;2023-07-02T04:56:00;10.67;;;5.40;;
12947;SDS011;6539;49.476;8.484;2023-07-02T04:58:46;10.20;;;6.10;;
12947;SDS011;6539;49.476;8.484;2023-07-02T05:01:32;13.23;;;6.27;;
12947;SDS011;6539;49.476;8.484;2023-07-02T05:04:18;10.70;;;6.27;;
12947;SDS011;6539;49.476;8.484;2023-07-02T05:07:04;10.37;;;6.40;;
12947;SDS011;6539;49.476;8.484;2023-07-02T05:09:51;11.97;;;6.53;;
12947;SDS011;6539;49.476;8.484;2023-07-02T05:12:40;14.87;;;7.37;;
12947;SDS011;6539;49.476;8.484;2023-07-02T05:15:26;10.93;;;7.10;;
12947;SDS011;6539;49.476;8.484;2023-07-02T05:18:12;10.67;;;7.07;;
12947;SDS011;6539;49.476;8.484;2023-07-02T05:21:01;11.67;;;6.97;;
12947;SDS011;6539;49.476;8.484;2023-07-02T05:23:49;13.33;;;7.30;;
12947;SDS011;6539;49.476;8.484;2023-07-02T05:26:37;14.83;;;7.87;;
12947;SDS011;6539;49.476;8.484;2023-07-02T05:29:23;13.17;;;7.83;;
12947;SDS011;6539;49.476;8.484;2023-07-02T05:32:09;11.03;;;6.50;;
12947;SDS011;6539;49.476;8.484;2023-07-02T05:34:55;12.40;;;7.40;;
12947;SDS011;6539;49.476;8.484;2023-07-02T05:37:44;11.20;;;7.80;;
12947;SDS011;6539;49.476;8.484;2023-07-02T05:40:30;13.30;;;7.40;;
12947;SDS011;6539;49.476;8.484;2023-07-02T05:43:17;16.20;;;7.40;;
12947;SDS011;6539;49.476;8.484;2023-07-02T05:46:05;13.30;;;7.07;;
12947;SDS011;6539;49.476;8.484;2023-07-02T05:48:53;12.93;;;7.47;;
12947;SDS011;6539;49.476;8.484;2023-07-02T05:51:42;12.37;;;7.37;;
12947;SDS011;6539;49.476;8.484;2023-07-02T05:54:30;13.77;;;7.97;;
12947;SDS011;6539;49.476;8.484;2023-07-02T05:57:19;12.27;;;7.90;;
12947;SDS011;6539;49.476;8.484;2023-07-02T06:00:05;12.17;;;8.03;;
12947;SDS011;6539;49.476;8.484;2023-07-02T06:02:54;17.53;;;8.13;;
12947;SDS011;6539;49.476;8.484;2023-07-02T06:05:40;12.53;;;8.43;;
12947;SDS011;6539;49.476;8.484;2023-07-02T06:08:28;12.27;;;7.03;;
12947;SDS011;6539;49.476;8.484;2023-07-02T06:11:14;13.37;;;8.17;;
12947;SDS011;6539;49.476;8.484;2023-07-02T06:14:03;14.87;;;8.90;;
12947;SDS011;6539;49.476;8.484;2023-07-02T06:16:49;12.87;;;8.40;;
12947;SDS011;6539;49.476;8.484;2023-07-02T06:19:38;12.53;;;8.07;;
12947;SDS011;6539;49.476;8.484;2023-07-02T06:22:26;15.73;;;8.50;;
12947;SDS011;6539;49.476;8.484;2023-07-02T06:25:13;13.20;;;8.80;;
12947;SDS011;6539;49.476;8.484;2023-07-02T06:28:02;12.87;;;8.40;;
12947;SDS011;6539;49.476;8.484;2023-07-02T06:30:50;17.23;;;9.50;;
12947;SDS011;6539;49.476;8.484;2023-07-02T06:33:38;13.80;;;9.17;;
12947;SDS011;6539;49.476;8.484;2023-07-02T06:36:26;15.13;;;9.67;;
12947;SDS011;6539;49.476;8.484;2023-07-02T06:39:12;15.07;;;9.37;;
12947;SDS011;6539;49.476;8.484;2023-07-02T06:41:58;13.67;;;9.17;;
12947;SDS011;6539;49.476;8.484;2023-07-02T06:44:46;17.50;;;9.57;;
12947;SDS011;6539;49.476;8.484;2023-07-02T06:47:32;17.13;;;10.60;;
12947;SDS011;6539;49.476;8.484;2023-07-02T06:50:18;15.83;;;9.77;;
12947;SDS011;6539;49.476;8.484;2023-07-02T06:53:08;12.30;;;9.20;;
12947;SDS011;6539;49.476;8.484;2023-07-02T06:55:54;15.37;;;9.00;;
12947;SDS011;6539;49.476;8.484;2023-07-02T06:58:43;15.30;;;9.83;;
12947;SDS011;6539;49.476;8.484;2023-07-02T07:01:29;15.63;;;9.30;;
12947;SDS011;6539;49.476;8.484;2023-07-02T07:04:15;14.50;;;10.07;;
12947;SDS011;6539;49.476;8.484;2023-07-02T07:07:04;16.40;;;10.90;;
12947;SDS011;6539;49.476;8.484;2023-07-02T07:09:51;15.73;;;9.60;;
12947;SDS011;6539;49.476;8.484;2023-07-02T07:12:37;13.13;;;9.60;;
12947;SDS011;6539;49.476;8.484;2023-07-02T07:15:25;14.17;;;9.90;;
12947;SDS011;6539;49.476;8.484;2023-07-02T07:18:12;17.07;;;10.17;;
12947;SDS011;6539;49.476;8.484;2023-07-02T07:21:01;14.27;;;9.73;;
12947;SDS011;6539;49.476;8.484;2023-07-02T07:23:47;15.23;;;9.70;;
12947;SDS011;6539;49.476;8.484;2023-07-02T07:26:35;16.40;;;10.57;;
12947;SDS011;6539;49.476;8.484;2023-07-02T07:29:21;19.50;;;11.20;;
12947;SDS011;6539;49.476;8.484;2023-07-02T07:32:08;18.57;;;11.53;;
12947;SDS011;6539;49.476;8.484;2023-07-02T07:34:54;20.17;;;11.60;;
12947;SDS011;6539;49.476;8.484;2023-07-02T07:37:40;17.90;;;12.27;;
12947;SDS011;6539;49.476;8.484;2023-07-02T07:40:26;19.47;;;11.77;;
12947;SDS011;6539;49.476;8.484;2023-07-02T07:43:14;19.80;;;12.53;;
12947;SDS011;6539;49.476;8.484;2023-07-02T07:46:00;21.83;;;12.97;;
12947;SDS011;6539;49.476;8.484;2023-07-02T07:48:46;18.90;;;12.53;;
12947;SDS011;6539;49.476;8.484;2023-07-02T07:51:32;19.37;;;13.07;;
12947;SDS011;6539;49.476;8.484;2023-07-02T07:54:21;23.10;;;13.57;;
12947;SDS011;6539;49.476;8.484;2023-07-02T07:57:10;20.87;;;13.37;;
12947;SDS011;6539;49.476;8.484;2023-07-02T07:59:56;20.37;;;12.93;;
12947;SDS011;6539;49.476;8.484;2023-07-02T08:02:42;20.93;;;12.97;;
12947;SDS011;6539;49.476;8.484;2023-07-02T08:05:30;24.87;;;13.93;;
12947;SDS011;6539;49.476;8.484;2023-07-02T08:08:16;19.67;;;12.83;;
12947;SDS011;6539;49.476;8.484;2023-07-02T08:11:02;21.33;;;13.50;;
12947;SDS011;6539;49.476;8.484;2023-07-02T08:13:51;20.53;;;13.43;;
12947;SDS011;6539;49.476;8.484;2023-07-02T08:16:37;21.07;;;13.13;;
12947;SDS011;6539;49.476;8.484;2023-07-02T08:19:23;22.80;;;13.10;;
12947;SDS011;6539;49.476;8.484;2023-07-02T08:22:10;21.43;;;13.30;;
12947;SDS011;6539;49.476;8.484;2023-07-02T08:24:56;18.13;;;13.13;;
12947;SDS011;6539;49.476;8.484;2023-07-02T08:27:44;25.00;;;12.73;;
12947;SDS011;6539;49.476;8.484;2023-07-02T08:30:30;22.00;;;13.37;;
12947;SDS011;6539;49.476;8.484;2023-07-02T08:33:18;20.23;;;13.07;;
12947;SDS011;6539;49.476;8.484;2023-07-02T08:36:05;19.07;;;12.70;;
12947;SDS011;6539;49.476;8.484;2023-07-02T08:38:54;23.67;;;14.07;;
12947;SDS011;6539;49.476;8.484;2023-07-02T08:41:43;25.67;;;13.53;;
12947;SDS011;6539;49.476;8.484;2023-07-02T08:44:33;21.40;;;13.23;;
12947;SDS011;6539;49.476;8.484;2023-07-02T08:47:22;27.90;;;21.77;;
12947;SDS011;6539;49.476;8.484;2023-07-02T08:50:08;20.33;;;13.47;;
12947;SDS011;6539;49.476;8.484;2023-07-02T08:52:55;24.07;;;13.27;;
12947;SDS011;6539;49.476;8.484;2023-07-02T08:55:41;20.63;;;13.43;;
12947;SDS011;6539;49.476;8.484;2023-07-02T08:58:29;24.53;;;14.80;;
12947;SDS011;6539;49.476;8.484;2023-07-02T09:01:18;22.37;;;13.93;;
12947;SDS011;6539;49.476;8.484;2023-07-02T09:04:04;22.57;;;14.63;;
12947;SDS011;6539;49.476;8.484;2023-07-02T09:07:06;19.27;;;13.63;;
12947;SDS011;6539;49.476;8.484;2023-07-02T09:09:54;19.77;;;12.83;;
12947;SDS011;6539;49.476;8.484;2023-07-02T09:12:45;23.03;;;12.17;;
12947;SDS011;6539;49.476;8.484;2023-07-02T09:15:35;21.30;;;13.60;;
12947;SDS011;6539;49.476;8.484;2023-07-02T09:18:25;23.27;;;13.40;;
12947;SDS011;6539;49.476;8.484;2023-07-02T09:21:11;23.87;;;13.90;;
12947;SDS011;6539;49.476;8.484;2023-07-02T09:23:57;20.37;;;13.93;;
12947;SDS011;6539;49.476;8.484;2023-07-02T09:26:44;16.00;;;12.73;;
12947;SDS011;6539;49.476;8.484;2023-07-02T09:29:39;19.33;;;13.13;;
12947;SDS011;6539;49.476;8.484;2023-07-02T09:32:25;29.17;;;22.43;;
12947;SDS011;6539;49.476;8.484;2023-07-02T09:35:18;18.40;;;12.93;;
12947;SDS011;6539;49.476;8.484;2023-07-02T09:38:05;21.03;;;13.73;;
12947;SDS011;6539;49.476;8.484;2023-07-02T09:40:51;18.87;;;12.60;;
12947;SDS011;6539;49.476;8.484;2023-07-02T09:43:39;21.23;;;12.97;;
12947;SDS011;6539;49.476;8.484;2023-07-02T09:46:27;17.80;;;12.60;;
12947;SDS011;6539;49.476;8.484;2023-07-02T09:49:16;20.47;;;12.77;;
12947;SDS011;6539;49.476;8.484;2023-07-02T09:52:09;21.90;;;14.33;;
12947;SDS011;6539;49.476;8.484;2023-07-02T09:54:59;19.30;;;12.93;;
12947;SDS011;6539;49.476;8.484;2023-07-02T09:57:49;18.37;;;13.30;;
12947;SDS011;6539;49.476;8.484;2023-07-02T10:00:38;21.53;;;14.37;;
12947;SDS011;6539;49.476;8.484;2023-07-02T10:03:28;23.73;;;15.10;;
12947;SDS011;6539;49.476;8.484;2023-07-02T10:06:17;22.90;;;14.50;;
12947;SDS011;6539;49.476;8.484;2023-07-02T10:09:03;23.87;;;14.53;;
12947;SDS011;6539;49.476;8.484;2023-07-02T10:11:53;21.40;;;15.00;;
12947;SDS011;6539;49.476;8.484;2023-07-02T10:14:40;23.43;;;14.30;;
12947;SDS011;6539;49.476;8.484;2023-07-02T10:17:28;19.23;;;14.47;;
12947;SDS011;6539;49.476;8.484;2023-07-02T10:20:18;24.20;;;14.30;;
12947;SDS011;6539;49.476;8.484;2023-07-02T10:23:18;22.27;;;14.13;;
12947;SDS011;6539;49.476;8.484;2023-07-02T10:26:37;21.87;;;13.90;;
12947;SDS011;6539;49.476;8.484;2023-07-02T10:29:18;21.63;;;14.17;;
12947;SDS011;6539;49.476;8.484;2023-07-02T10:32:07;22.40;;;14.67;;
12947;SDS011;6539;49.476;8.484;2023-07-02T10:34:55;21.43;;;14.70;;
12947;SDS011;6539;49.476;8.484;2023-07-02T10:37:46;23.87;;;14.33;;
12947;SDS011;6539;49.476;8.484;2023-07-02T10:40:35;22.63;;;14.77;;
12947;SDS011;6539;49.476;8.484;2023-07-02T10:43:30;24.03;;;16.20;;
12947;SDS011;6539;49.476;8.484;2023-07-02T10:46:21;20.83;;;14.93;;
12947;SDS011;6539;49.476;8.484;2023-07-02T10:49:09;22.77;;;14.97;;
12947;SDS011;6539;49.476;8.484;2023-07-02T10:51:59;20.17;;;14.13;;
12947;SDS011;6539;49.476;8.484;2023-07-02T10:54:47;22.13;;;15.03;;
12947;SDS011;6539;49.476;8.484;2023-07-02T10:57:35;20.80;;;15.10;;
12947;SDS011;6539;49.476;8.484;2023-07-02T11:00:23;22.93;;;15.57;;
12947;SDS011;6539;49.476;8.484;2023-07-02T11:03:19;20.60;;;15.20;;
12947;SDS011;6539;49.476;8.484;2023-07-02T11:06:07;19.90;;;14.90;;
12947;SDS011;6539;49.476;8.484;2023-07-02T11:08:53;22.53;;;15.50;;
12947;SDS011;6539;49.476;8.484;2023-07-02T11:11:50;22.87;;;16.13;;
12947;SDS011;6539;49.476;8.484;2023-07-02T11:14:41;20.63;;;15.40;;
12947;SDS011;6539;49.476;8.484;2023-07-02T11:17:27;21.97;;;14.60;;
12947;SDS011;6539;49.476;8.484;2023-07-02T11:20:14;20.95;;;14.85;;
12947;SDS011;6539;49.476;8.484;2023-07-02T11:23:01;22.67;;;15.50;;
12947;SDS011;6539;49.476;8.484;2023-07-02T11:25:59;22.42;;;15.77;;
12947;SDS011;6539;49.476;8.484;2023-07-02T11:28:48;27.38;;;15.18;;
12947;SDS011;6539;49.476;8.484;2023-07-02T11:31:36;21.60;;;15.07;;
12947;SDS011;6539;49.476;8.484;2023-07-02T11:34:27;21.95;;;15.13;;
12947;SDS011;6539;49.476;8.484;2023-07-02T11:37:15;24.67;;;15.23;;
12947;SDS011;6539;49.476;8.484;2023-07-02T11:40:01;24.43;;;15.17;;
12947;SDS011;6539;49.476;8.484;2023-07-02T11:42:50;20.60;;;13.70;;
12947;SDS011;6539;49.476;8.484;2023-07-02T11:45:38;21.23;;;14.90;;
12947;SDS011;6539;49.476;8.484;2023-07-02T11:48:27;23.08;;;15.65;;
12947;SDS011;6539;49.476;8.484;2023-07-02T11:51:15;19.77;;;15.10;;
12947;SDS011;6539;49.476;8.484;2023-07-02T11:54:03;19.85;;;14.25;;
12947;SDS011;6539;49.476;8.484;2023-07-02T11:56:51;21.23;;;16.05;;
12947;SDS011;6539;49.476;8.484;2023-07-02T11:59:41;18.20;;;13.15;;
12947;SDS011;6539;49.476;8.484;2023-07-02T12:02:32;19.23;;;14.45;;
12947;SDS011;6539;49.476;8.484;2023-07-02T12:05:20;21.42;;;13.48;;
12947;SDS011;6539;49.476;8.484;2023-07-02T12:08:07;20.85;;;14.38;;
12947;SDS011;6539;49.476;8.484;2023-07-02T12:10:55;19.08;;;13.80;;
12947;SDS011;6539;49.476;8.484;2023-07-02T12:13:41;17.40;;;13.05;;
12947;SDS011;6539;49.476;8.484;2023-07-02T12:16:27;18.40;;;14.27;;
12947;SDS011;6539;49.476;8.484;2023-07-02T12:19:15;20.52;;;14.65;;
12947;SDS011;6539;49.476;8.484;2023-07-02T12:22:04;20.10;;;14.68;;
12947;SDS011;6539;49.476;8.484;2023-07-02T12:24:57;21.92;;;14.35;;
12947;SDS011;6539;49.476;8.484;2023-07-02T12:27:43;17.45;;;13.30;;
12947;SDS011;6539;49.476;8.484;2023-07-02T12:30:32;21.83;;;14.65;;
12947;SDS011;6539;49.476;8.484;2023-07-02T12:33:18;21.77;;;15.88;;
12947;SDS011;6539;49.476;8.484;2023-07-02T12:36:04;20.20;;;14.77;;
12947;SDS011;6539;49.476;8.484;2023-07-02T12:38:50;21.58;;;14.80;;
12947;SDS011;6539;49.476;8.484;2023-07-02T12:41:36;20.38;;;14.30;;
12947;SDS011;6539;49.476;8.484;2023-07-02T12:44:22;20.00;;;13.88;;
12947;SDS011;6539;49.476;8.484;2023-07-02T12:47:09;18.88;;;14.57;;
12947;SDS011;6539;49.476;8.484;2023-07-02T12:49:59;19.30;;;14.30;;
12947;SDS011;6539;49.476;8.484;2023-07-02T12:52:46;21.67;;;15.23;;
12947;SDS011;6539;49.476;8.484;2023-07-02T12:55:32;21.88;;;15.18;;
12947;SDS011;6539;49.476;8.484;2023-07-02T12:58:18;22.05;;;14.80;;
12947;SDS011;6539;49.476;8.484;2023-07-02T13:01:06;25.25;;;15.38;;
12947;SDS011;6539;49.476;8.484;2023-07-02T13:03:52;19.80;;;14.88;;
12947;SDS011;6539;49.476;8.484;2023-07-02T13:06:41;21.23;;;13.90;;
12947;SDS011;6539;49.476;8.484;2023-07-02T13:09:27;22.63;;;14.50;;
12947;SDS011;6539;49.476;8.484;2023-07-02T13:12:13;23.58;;;15.27;;
12947;SDS011;6539;49.476;8.484;2023-07-02T13:14:59;22.67;;;14.27;;
12947;SDS011;6539;49.476;8.484;2023-07-02T13:17:45;24.45;;;14.93;;
12947;SDS011;6539;49.476;8.484;2023-07-02T13:20:36;20.48;;;15.38;;
12947;SDS011;6539;49.476;8.484;2023-07-02T13:23:22;21.00;;;17.00;;
12947;SDS011;6539;49.476;8.484;2023-07-02T13:26:10;19.73;;;14.15;;
12947;SDS011;6539;49.476;8.484;2023-07-02T13:28:56;21.38;;;15.40;;
12947;SDS011;6539;49.476;8.484;2023-07-02T13:31:45;21.15;;;15.07;;
12947;SDS011;6539;49.476;8.484;2023-07-02T13:34:31;19.10;;;14.10;;
12947;SDS011;6539;49.476;8.484;2023-07-02T13:37:17;21.90;;;14.38;;
12947;SDS011;6539;49.476;8.484;2023-07-02T13:40:04;21.13;;;15.23;;
12947;SDS011;6539;49.476;8.484;2023-07-02T13:42:52;18.42;;;14.50;;
12947;SDS011;6539;49.476;8.484;2023-07-02T13:45:38;21.13;;;15.07;;
12947;SDS011;6539;49.476;8.484;2023-07-02T13:48:25;20.38;;;15.48;;
12947;SDS011;6539;49.476;8.484;2023-07-02T13:51:11;20.85;;;15.30;;
12947;SDS011;6539;49.476;8.484;2023-07-02T13:53:57;20.95;;;15.10;;
12947;SDS011;6539;49.476;8.484;2023-07-02T13:56:43;19.88;;;16.15;;
12947;SDS011;6539;49.476;8.484;2023-07-02T13:59:30;21.42;;;13.90;;
12947;SDS011;6539;49.476;8.484;2023-07-02T14:02:16;24.17;;;15.18;;
12947;SDS011;6539;49.476;8.484;2023-07-02T14:05:05;21.05;;;15.30;;
12947;SDS011;6539;49.476;8.484;2023-07-02T14:07:55;22.27;;;15.20;;
12947;SDS011;6539;49.476;8.484;2023-07-02T14:10:43;23.40;;;15.15;;
12947;SDS011;6539;49.476;8.484;2023-07-02T14:13:31;24.05;;;14.35;;
12947;SDS011;6539;49.476;8.484;2023-07-02T14:16:23;22.33;;;15.25;;
12947;SDS011;6539;49.476;8.484;2023-07-02T14:19:10;19.52;;;13.73;;
12947;SDS011;6539;49.476;8.484;2023-07-02T14:21:58;21.80;;;14.45;;
12947;SDS011;6539;49.476;8.484;2023-07-02T14:24:44;22.08;;;14.73;;
12947;SDS011;6539;49.476;8.484;2023-07-02T14:27:33;19.42;;;14.27;;
12947;SDS011;6539;49.476;8.484;2023-07-02T14:30:19;21.23;;;14.87;;
12947;SDS011;6539;49.476;8.484;2023-07-02T14:33:09;20.52;;;14.32;;
12947;SDS011;6539;49.476;8.484;2023-07-02T14:35:56;19.95;;;13.85;;
12947;SDS011;6539;49.476;8.484;2023-07-02T14:38:42;22.05;;;14.95;;
12947;SDS011;6539;49.476;8.484;2023-07-02T14:41:29;29.63;;;14.70;;
12947;SDS011;6539;49.476;8.484;2023-07-02T14:44:22;20.58;;;14.27;;
12947;SDS011;6539;49.476;8.484;2023-07-02T14:47:09;21.80;;;14.57;;
12947;SDS011;6539;49.476;8.484;2023-07-02T14:49:55;20.63;;;14.70;;
12947;SDS011;6539;49.476;8.484;2023-07-02T14:52:41;22.88;;;14.95;;
12947;SDS011;6539;49.476;8.484;2023-07-02T14:55:27;20.35;;;14.73;;
12947;SDS011;6539;49.476;8.484;2023-07-02T14:58:16;20.13;;;14.30;;
12947;SDS011;6539;49.476;8.484;2023-07-02T15:01:03;21.95;;;15.10;;
12947;SDS011;6539;49.476;8.484;2023-07-02T15:03:49;29.67;;;17.05;;
12947;SDS011;6539;49.476;8.484;2023-07-02T15:06:35;23.27;;;14.93;;
12947;SDS011;6539;49.476;8.484;2023-07-02T15:09:21;19.67;;;14.02;;
12947;SDS011;6539;49.476;8.484;2023-07-02T15:12:09;21.45;;;13.90;;
12947;SDS011;6539;49.476;8.484;2023-07-02T15:15:00;19.17;;;14.40;;
12947;SDS011;6539;49.476;8.484;2023-07-02T15:17:46;20.10;;;13.88;;
12947;SDS011;6539;49.476;8.484;2023-07-02T15:20:37;24.60;;;14.55;;
12947;SDS011;6539;49.476;8.484;2023-07-02T15:23:23;19.05;;;14.15;;
12947;SDS011;6539;49.476;8.484;2023-07-02T15:26:10;19.88;;;15.07;;
12947;SDS011;6539;49.476;8.484;2023-07-02T15:29:00;21.38;;;14.65;;
12947;SDS011;6539;49.476;8.484;2023-07-02T15:31:46;21.50;;;15.40;;
12947;SDS011;6539;49.476;8.484;2023-07-02T15:34:33;21.42;;;15.20;;
12947;SDS011;6539;49.476;8.484;2023-07-02T15:37:19;23.42;;;14.55;;
12947;SDS011;6539;49.476;8.484;2023-07-02T15:40:05;21.63;;;15.05;;
12947;SDS011;6539;49.476;8.484;2023-07-02T15:42:52;20.35;;;14.43;;
12947;SDS011;6539;49.476;8.484;2023-07-02T15:45:38;21.95;;;15.40;;
12947;SDS011;6539;49.476;8.484;2023-07-02T15:48:24;24.42;;;15.63;;
12947;SDS011;6539;49.476;8.484;2023-07-02T15:51:10;18.23;;;14.57;;
12947;SDS011;6539;49.476;8.484;2023-07-02T15:53:56;21.08;;;14.93;;
12947;SDS011;6539;49.476;8.484;2023-07-02T15:56:43;21.38;;;14.85;;
12947;SDS011;6539;49.476;8.484;2023-07-02T15:59:32;21.13;;;14.45;;
12947;SDS011;6539;49.476;8.484;2023-07-02T16:02:18;24.33;;;17.65;;
12947;SDS011;6539;49.476;8.484;2023-07-02T16:05:04;22.50;;;17.65;;
12947;SDS011;6539;49.476;8.484;2023-07-02T16:07:51;21.73;;;16.92;;
12947;SDS011;6539;49.476;8.484;2023-07-02T16:10:43;20.40;;;15.05;;
12947;SDS011;6539;49.476;8.484;2023-07-02T16:13:30;31.70;;;23.60;;
12947;SDS011;6539;49.476;8.484;2023-07-02T16:16:16;23.90;;;15.43;;
12947;SDS011;6539;49.476;8.484;2023-07-02T16:19:08;20.45;;;14.90;;
12947;SDS011;6539;49.476;8.484;2023-07-02T16:21:56;20.95;;;16.13;;
12947;SDS011;6539;49.476;8.484;2023-07-02T16:24:45;23.83;;;17.08;;
12947;SDS011;6539;49.476;8.484;2023-07-02T16:27:33;24.98;;;16.25;;
12947;SDS011;6539;49.476;8.484;2023-07-02T16:30:19;23.25;;;16.60;;
12947;SDS011;6539;49.476;8.484;2023-07-02T16:33:06;21.08;;;15.43;;
12947;SDS011;6539;49.476;8.484;2023-07-02T16:35:52;22.08;;;14.60;;
12947;SDS011;6539;49.476;8.484;2023-07-02T16:38:38;18.33;;;13.73;;
12947;SDS011;6539;49.476;8.484;2023-07-02T16:41:29;21.80;;;14.32;;
12947;SDS011;6539;49.476;8.484;2023-07-02T16:44:22;20.42;;;14.52;;
12947;SDS011;6539;49.476;8.484;2023-07-02T16:47:12;20.95;;;14.77;;